createdAt,value
2019-04-10T00:01:25.900Z,20.43
2019-04-10T00:03:58.687Z,20.23
2019-04-10T00:06:30.008Z,21.70
2019-04-10T00:09:02.945Z,20.45
2019-04-10T00:11:36.674Z,20.17
2019-04-10T00:14:08.360Z,22.00
2019-04-10T00:16:40.488Z,21.77
2019-04-10T00:19:12.788Z,19.90
2019-04-10T00:21:45.217Z,20.52
2019-04-10T00:24:16.917Z,20.57
2019-04-10T00:26:48.255Z,21.37
2019-04-10T00:29:20.334Z,20.68
2019-04-10T00:31:54.142Z,21.17
2019-04-10T00:34:25.729Z,21.17
2019-04-10T00:36:57.646Z,21.27
2019-04-10T00:39:28.807Z,20.88
2019-04-10T00:42:00.863Z,20.57
2019-04-10T00:44:32.190Z,19.85
2019-04-10T00:47:04.511Z,19.98
2019-04-10T00:49:36.548Z,20.05
2019-04-10T00:52:08.031Z,19.67
2019-04-10T00:54:39.331Z,19.42
2019-04-10T00:57:11.214Z,19.45
2019-04-10T00:59:42.269Z,18.62
2019-04-10T01:02:14.975Z,18.52
2019-04-10T01:04:46.724Z,17.50
2019-04-10T01:07:18.893Z,17.65
2019-04-10T01:09:50.433Z,17.90
2019-04-10T01:12:22.079Z,17.60
2019-04-10T01:14:54.034Z,16.73
2019-04-10T01:17:26.334Z,16.75
2019-04-10T01:19:58.493Z,16.87
2019-04-10T01:22:30.890Z,17.05
2019-04-10T01:25:02.289Z,16.20
2019-04-10T01:27:34.109Z,16.20
2019-04-10T01:30:07.073Z,15.53
2019-04-10T01:32:38.412Z,14.98
2019-04-10T01:35:09.977Z,14.83
2019-04-10T01:37:49.504Z,14.85
2019-04-10T01:40:15.002Z,15.60
2019-04-10T01:42:59.959Z,14.47
2019-04-10T01:45:20.031Z,14.30
2019-04-10T01:47:51.282Z,13.10
2019-04-10T01:50:22.597Z,13.58
2019-04-10T01:52:53.714Z,13.85
2019-04-10T01:55:29.546Z,14.25
2019-04-10T01:58:00.968Z,12.73
2019-04-10T02:00:32.843Z,13.72
2019-04-10T02:03:04.137Z,13.80
2019-04-10T02:05:36.592Z,13.25
2019-04-10T02:08:11.427Z,13.53
2019-04-10T02:10:41.224Z,13.38
2019-04-10T02:13:12.685Z,12.68
2019-04-10T02:15:44.112Z,13.93
2019-04-10T02:18:15.291Z,12.93
2019-04-10T02:20:47.366Z,13.18
2019-04-10T02:23:19.341Z,12.95
2019-04-10T02:25:50.939Z,12.85
2019-04-10T02:28:22.778Z,12.75
2019-04-10T02:30:54.552Z,13.83
2019-04-10T02:33:27.526Z,13.22
2019-04-10T02:35:59.187Z,13.18
2019-04-10T02:38:48.963Z,13.38
2019-04-10T02:41:03.598Z,14.03
2019-04-10T02:43:36.028Z,13.58
2019-04-10T02:46:08.335Z,14.55
2019-04-10T02:48:41.553Z,14.45
2019-04-10T02:51:13.674Z,15.48
2019-04-10T02:53:45.941Z,14.85
2019-04-10T02:56:18.121Z,15.43
2019-04-10T02:58:51.557Z,16.57
2019-04-10T03:01:25.065Z,16.30
2019-04-10T03:03:57.070Z,17.23
2019-04-10T03:06:29.282Z,15.20
2019-04-10T03:09:16.340Z,17.70
2019-04-10T03:11:35.397Z,17.07
2019-04-10T03:14:08.023Z,16.37
2019-04-10T03:16:39.929Z,17.65
2019-04-10T03:19:11.616Z,19.07
2019-04-10T03:21:43.380Z,17.92
2019-04-10T03:24:14.924Z,16.93
2019-04-10T03:26:46.550Z,17.60
2019-04-10T03:29:18.285Z,18.55
2019-04-10T03:31:52.271Z,18.37
2019-04-10T03:34:27.818Z,20.15
2019-04-10T03:36:58.364Z,19.17
2019-04-10T03:39:31.699Z,20.02
2019-04-10T03:42:06.496Z,20.55
2019-04-10T03:44:38.886Z,20.68
2019-04-10T03:47:11.178Z,22.45
2019-04-10T03:49:42.664Z,23.50
2019-04-10T03:52:14.375Z,23.75
2019-04-10T03:54:48.163Z,23.57
2019-04-10T03:57:20.580Z,22.55
2019-04-10T03:59:51.934Z,23.47
2019-04-10T04:02:23.997Z,24.10
2019-04-10T04:04:55.935Z,24.80
2019-04-10T04:07:27.846Z,25.08
2019-04-10T04:10:00.195Z,25.15
2019-04-10T04:12:32.782Z,26.40
2019-04-10T04:15:05.386Z,25.92
2019-04-10T04:17:37.815Z,24.63
2019-04-10T04:20:09.329Z,26.70
2019-04-10T04:22:41.187Z,26.42
2019-04-10T04:25:13.063Z,27.17
2019-04-10T04:27:44.746Z,26.17
2019-04-10T04:30:16.980Z,26.52
2019-04-10T04:32:48.599Z,26.70
2019-04-10T04:35:20.258Z,27.17
2019-04-10T04:37:52.622Z,26.73
2019-04-10T04:40:25.898Z,26.10
2019-04-10T04:42:58.029Z,27.73
2019-04-10T04:45:30.020Z,27.80
2019-04-10T04:48:01.829Z,27.42
2019-04-10T04:50:34.226Z,27.25
2019-04-10T04:53:06.680Z,26.70
2019-04-10T04:55:39.428Z,28.10
2019-04-10T04:58:11.749Z,28.23
2019-04-10T05:00:42.993Z,28.38
2019-04-10T05:03:14.606Z,29.30
2019-04-10T05:05:45.766Z,29.07
2019-04-10T05:08:17.525Z,28.47
2019-04-10T05:10:50.192Z,28.30
2019-04-10T05:13:22.342Z,28.42
2019-04-10T05:15:53.944Z,29.35
2019-04-10T05:18:25.442Z,29.35
2019-04-10T05:20:56.815Z,30.52
2019-04-10T05:23:28.836Z,29.80
2019-04-10T05:26:00.565Z,28.83
2019-04-10T05:28:32.738Z,30.25
2019-04-10T05:31:04.073Z,30.08
2019-04-10T05:33:36.607Z,29.02
2019-04-10T05:36:08.937Z,31.12
2019-04-10T05:38:40.208Z,29.50
2019-04-10T05:41:11.502Z,29.55
2019-04-10T05:43:42.843Z,30.97
2019-04-10T05:46:15.118Z,30.55
2019-04-10T05:48:46.358Z,29.40
2019-04-10T05:51:17.637Z,30.40
2019-04-10T05:53:51.346Z,31.15
2019-04-10T05:56:22.517Z,31.15
2019-04-10T05:58:54.599Z,32.38
2019-04-10T06:01:35.241Z,30.62
2019-04-10T06:03:59.417Z,31.33
2019-04-10T06:06:30.718Z,29.82
2019-04-10T06:09:02.583Z,32.42
2019-04-10T06:11:35.127Z,31.80
2019-04-10T06:14:06.652Z,32.35
2019-04-10T06:16:37.817Z,32.25
2019-04-10T06:19:09.514Z,32.80
2019-04-10T06:21:41.134Z,33.50
2019-04-10T06:24:12.434Z,33.33
2019-04-10T06:26:43.739Z,33.30
2019-04-10T06:29:15.102Z,33.33
2019-04-10T06:31:47.198Z,34.43
2019-04-10T06:34:20.475Z,33.40
2019-04-10T06:36:52.032Z,35.25
2019-04-10T06:39:23.318Z,35.80
2019-04-10T06:41:55.985Z,35.20
2019-04-10T06:44:28.767Z,32.23
2019-04-10T06:47:00.382Z,36.33
2019-04-10T06:49:33.094Z,32.38
2019-04-10T06:52:04.748Z,34.20
2019-04-10T06:54:36.483Z,32.45
2019-04-10T06:57:08.284Z,32.67
2019-04-10T06:59:40.016Z,33.13
2019-04-10T07:02:21.779Z,32.48
2019-04-10T07:04:51.553Z,31.42
2019-04-10T07:07:20.241Z,30.90
2019-04-10T07:09:52.315Z,30.40
2019-04-10T07:12:30.142Z,30.20
2019-04-10T07:14:59.734Z,28.73
2019-04-10T07:17:35.602Z,28.32
2019-04-10T07:20:05.319Z,30.32
2019-04-10T07:22:44.568Z,32.25
2019-04-10T07:25:12.706Z,29.42
2019-04-10T07:27:44.149Z,29.23
2019-04-10T07:30:17.327Z,30.92
2019-04-10T07:32:49.213Z,29.57
2019-04-10T07:35:21.858Z,27.48
2019-04-10T07:37:56.432Z,27.30
2019-04-10T07:40:28.247Z,27.10
2019-04-10T07:43:00.677Z,26.33
2019-04-10T07:45:32.097Z,26.50
2019-04-10T07:48:04.447Z,25.77
2019-04-10T07:50:37.124Z,25.62
2019-04-10T07:53:08.564Z,27.35
2019-04-10T07:55:39.810Z,25.77
2019-04-10T07:58:11.116Z,25.95
2019-04-10T08:00:42.943Z,27.10
2019-04-10T08:03:14.728Z,25.05
2019-04-10T08:05:46.114Z,25.48
2019-04-10T08:08:17.541Z,23.87
2019-04-10T08:10:49.153Z,25.20
2019-04-10T08:13:20.485Z,22.17
2019-04-10T08:15:52.254Z,25.05
2019-04-10T08:18:23.593Z,23.55
2019-04-10T08:20:55.228Z,23.70
2019-04-10T08:23:28.122Z,25.05
2019-04-10T08:26:00.106Z,24.50
2019-04-10T08:28:32.667Z,24.70
2019-04-10T08:31:04.469Z,24.40
2019-04-10T08:33:36.684Z,23.95
2019-04-10T08:36:08.031Z,25.02
2019-04-10T08:38:40.079Z,23.80
2019-04-10T08:41:11.449Z,25.10
2019-04-10T08:43:42.904Z,24.77
2019-04-10T08:46:14.453Z,28.60
2019-04-10T08:48:46.267Z,24.47
2019-04-10T08:51:17.913Z,24.40
2019-04-10T08:53:49.179Z,24.35
2019-04-10T08:56:20.771Z,23.60
2019-04-10T08:58:52.173Z,25.40
2019-04-10T09:01:23.530Z,24.23
2019-04-10T09:03:55.222Z,23.57
2019-04-10T09:06:27.258Z,22.50
2019-04-10T09:08:59.357Z,23.57
2019-04-10T09:11:32.968Z,25.32
2019-04-10T09:14:05.239Z,22.52
2019-04-10T09:16:36.503Z,22.55
2019-04-10T09:19:07.670Z,23.00
2019-04-10T09:21:38.924Z,21.70
2019-04-10T09:24:10.285Z,23.07
2019-04-10T09:26:41.541Z,23.47
2019-04-10T09:29:13.994Z,23.40
2019-04-10T09:31:46.071Z,25.08
2019-04-10T09:34:19.910Z,21.82
2019-04-10T09:36:53.395Z,23.27
2019-04-10T09:39:27.583Z,23.05
2019-04-10T09:41:59.051Z,23.60
2019-04-10T09:44:30.506Z,24.50
2019-04-10T09:47:02.143Z,24.30
2019-04-10T09:49:40.371Z,25.80
2019-04-10T09:52:06.943Z,23.75
2019-04-10T09:54:38.549Z,24.25
2019-04-10T09:57:09.805Z,23.47
2019-04-10T09:59:41.306Z,26.45
2019-04-10T10:02:13.254Z,23.57
2019-04-10T10:04:46.014Z,22.42
2019-04-10T10:07:18.637Z,23.22
2019-04-10T10:09:49.904Z,23.40
2019-04-10T10:12:21.167Z,22.07
2019-04-10T10:14:52.588Z,21.50
2019-04-10T10:17:24.446Z,20.68
2019-04-10T10:19:55.709Z,19.65
2019-04-10T10:22:27.414Z,21.33
2019-04-10T10:24:59.373Z,20.70
2019-04-10T10:27:30.860Z,20.95
2019-04-10T10:30:02.546Z,22.02
2019-04-10T10:32:35.140Z,23.27
2019-04-10T10:35:07.406Z,22.80
2019-04-10T10:37:39.076Z,21.45
2019-04-10T10:40:12.193Z,21.68
2019-04-10T10:42:43.554Z,23.12
2019-04-10T10:45:16.006Z,21.75
2019-04-10T10:47:48.484Z,20.82
2019-04-10T10:50:19.909Z,20.95
2019-04-10T10:52:52.144Z,19.67
2019-04-10T10:55:25.413Z,20.68
2019-04-10T10:57:59.406Z,22.00
2019-04-10T11:00:31.444Z,22.10
2019-04-10T11:03:02.909Z,22.52
2019-04-10T11:05:37.156Z,20.70
2019-04-10T11:08:08.532Z,19.32
2019-04-10T11:10:41.079Z,18.62
2019-04-10T11:13:14.926Z,18.60
2019-04-10T11:15:46.422Z,17.40
2019-04-10T11:18:19.279Z,17.07
2019-04-10T11:20:50.658Z,17.12
2019-04-10T11:23:22.236Z,17.48
2019-04-10T11:25:55.146Z,17.48
2019-04-10T11:31:01.721Z,15.98
2019-04-10T11:33:34.799Z,16.60
2019-04-10T11:36:07.755Z,15.45
2019-04-10T11:38:39.875Z,14.20
2019-04-10T11:41:12.514Z,16.05
2019-04-10T11:43:44.608Z,16.15
2019-04-10T11:46:17.145Z,16.10
2019-04-10T11:48:49.312Z,16.73
2019-04-10T11:51:23.517Z,15.55
2019-04-10T11:53:56.951Z,16.02
2019-04-10T11:56:30.065Z,16.35
2019-04-10T11:59:01.643Z,15.70
2019-04-10T12:01:35.946Z,14.75
2019-04-10T12:04:10.727Z,14.73
2019-04-10T12:06:43.214Z,14.23
2019-04-10T12:10:01.867Z,15.50
2019-04-10T12:11:51.209Z,15.03
2019-04-10T12:14:23.634Z,15.45
2019-04-10T12:16:55.831Z,15.70
2019-04-10T12:19:27.165Z,15.50
2019-04-10T12:21:58.300Z,15.53
2019-04-10T12:24:30.300Z,15.88
2019-04-10T12:27:02.421Z,15.05
2019-04-10T12:29:34.984Z,16.62
2019-04-10T12:32:06.380Z,16.17
2019-04-10T12:34:38.292Z,15.93
2019-04-10T12:37:09.518Z,16.90
2019-04-10T12:39:41.244Z,14.95
2019-04-10T12:42:12.506Z,15.20
2019-04-10T12:44:44.158Z,15.40
2019-04-10T12:47:15.534Z,14.85
2019-04-10T12:49:47.663Z,14.95
2019-04-10T12:52:20.583Z,14.65
2019-04-10T12:54:53.239Z,14.38
2019-04-10T12:57:24.586Z,15.18
2019-04-10T13:00:01.383Z,16.17
2019-04-10T13:02:30.191Z,14.83
2019-04-10T13:05:02.923Z,15.23
2019-04-10T13:07:37.964Z,15.40
2019-04-10T13:10:09.290Z,15.25
2019-04-10T13:12:41.538Z,15.90
2019-04-10T13:15:15.147Z,15.35
2019-04-10T13:17:47.000Z,15.90
2019-04-10T13:20:19.909Z,15.58
2019-04-10T13:22:51.197Z,14.75
2019-04-10T13:25:23.954Z,15.98
2019-04-10T13:27:55.355Z,14.43
2019-04-10T13:30:27.057Z,14.75
2019-04-10T13:32:58.660Z,14.28
2019-04-10T13:35:30.277Z,14.60
2019-04-10T13:38:01.709Z,13.78
2019-04-10T13:40:33.772Z,13.22
2019-04-10T13:43:05.364Z,15.98
2019-04-10T13:45:37.420Z,14.30
2019-04-10T13:48:08.664Z,14.00
2019-04-10T13:50:41.077Z,14.80
2019-04-10T13:53:13.444Z,14.70
2019-04-10T13:55:44.872Z,14.58
2019-04-10T13:58:17.264Z,14.07
2019-04-10T14:00:49.674Z,14.35
2019-04-10T14:03:21.271Z,14.63
2019-04-10T14:05:52.873Z,13.30
2019-04-10T14:08:40.452Z,12.93
2019-04-10T14:10:57.835Z,12.68
2019-04-10T14:13:29.640Z,13.05
2019-04-10T14:16:02.299Z,14.25
2019-04-10T14:18:33.459Z,13.15
2019-04-10T14:21:09.705Z,12.30
2019-04-10T14:23:39.528Z,11.93
2019-04-10T14:26:42.013Z,11.35
2019-04-10T14:29:09.808Z,11.28
2019-04-10T14:31:46.699Z,10.05
2019-04-10T14:34:19.847Z,11.45
2019-04-10T14:36:52.726Z,11.60
2019-04-10T14:39:24.453Z,11.40
2019-04-10T14:41:55.738Z,10.32
2019-04-10T14:44:27.028Z,10.53
2019-04-10T14:46:58.298Z,11.18
2019-04-10T14:49:31.334Z,10.43
2019-04-10T14:52:03.265Z,9.78
2019-04-10T14:54:35.689Z,9.53
2019-04-10T14:57:07.551Z,9.10
2019-04-10T14:59:40.096Z,9.48
2019-04-10T15:02:12.657Z,9.70
2019-04-10T15:04:45.748Z,8.80
2019-04-10T15:07:18.210Z,9.43
2019-04-10T15:09:49.664Z,9.50
2019-04-10T15:12:20.772Z,9.23
2019-04-10T15:14:52.224Z,8.58
2019-04-10T15:17:23.802Z,8.65
2019-04-10T15:19:55.080Z,8.28
2019-04-10T15:22:27.562Z,8.85
2019-04-10T15:24:59.339Z,8.40
2019-04-10T15:27:31.597Z,8.88
2019-04-10T15:30:02.856Z,9.03
2019-04-10T15:32:35.925Z,9.03
2019-04-10T15:35:08.381Z,8.30
2019-04-10T15:37:39.762Z,8.15
2019-04-10T15:40:19.581Z,7.35
2019-04-10T15:42:46.116Z,8.05
2019-04-10T15:45:18.169Z,7.70
2019-04-10T15:47:54.161Z,7.33
2019-04-10T15:50:22.762Z,6.83
2019-04-10T15:52:55.675Z,8.00
2019-04-10T15:55:28.030Z,8.08
2019-04-10T15:58:02.042Z,7.65
2019-04-10T16:00:33.073Z,7.45
2019-04-10T16:03:05.005Z,7.80
2019-04-10T16:05:36.368Z,7.42
2019-04-10T16:08:08.161Z,6.45
2019-04-10T16:10:47.688Z,7.30
2019-04-10T16:13:37.165Z,7.45
2019-04-10T16:16:26.061Z,7.78
2019-04-10T16:19:08.454Z,7.33
2019-04-10T16:21:41.488Z,7.47
2019-04-10T16:24:14.459Z,6.67
2019-04-10T16:26:47.290Z,7.60
2019-04-10T16:29:20.212Z,6.70
2019-04-10T16:31:53.114Z,6.83
2019-04-10T16:34:24.893Z,6.50
2019-04-10T16:36:57.652Z,6.47
2019-04-10T16:39:30.084Z,6.95
2019-04-10T16:42:02.240Z,7.22
2019-04-10T16:44:33.732Z,6.85
2019-04-10T16:47:05.888Z,6.33
2019-04-10T16:49:37.565Z,6.58
2019-04-10T16:52:09.564Z,6.03
2019-04-10T16:54:41.027Z,6.10
2019-04-10T16:57:12.740Z,6.15
2019-04-10T16:59:44.508Z,6.55
2019-04-10T17:02:15.802Z,7.20
2019-04-10T17:04:47.997Z,6.12
2019-04-10T17:07:19.634Z,8.13
2019-04-10T17:09:51.479Z,6.05
2019-04-10T17:12:23.252Z,7.87
2019-04-10T17:14:55.428Z,6.10
2019-04-10T17:17:26.888Z,5.85
2019-04-10T17:19:59.501Z,5.75
2019-04-10T17:22:39.076Z,5.87
2019-04-10T17:25:06.317Z,6.20
2019-04-10T17:27:39.407Z,5.80
2019-04-10T17:30:11.650Z,5.75
2019-04-10T17:32:43.054Z,5.42
2019-04-10T17:35:15.714Z,6.17
2019-04-10T17:37:47.782Z,6.15
2019-04-10T17:40:31.086Z,5.92
2019-04-10T17:42:52.838Z,5.90
2019-04-10T17:45:25.808Z,5.50
2019-04-10T17:47:57.994Z,5.58
2019-04-10T17:50:30.045Z,5.67
2019-04-10T17:53:01.860Z,5.67
2019-04-10T17:55:33.657Z,5.22
2019-04-10T17:58:05.661Z,5.75
2019-04-10T18:00:45.183Z,5.65
2019-04-10T18:03:18.638Z,6.20
2019-04-10T18:05:50.940Z,5.58
2019-04-10T18:08:26.379Z,6.20
2019-04-10T18:10:57.134Z,6.15
2019-04-10T18:13:28.893Z,5.28
2019-04-10T18:16:00.517Z,5.55
2019-04-10T18:18:32.639Z,5.55
2019-04-10T18:21:04.492Z,5.78
2019-04-10T18:23:36.346Z,5.40
2019-04-10T18:26:08.742Z,5.45
2019-04-10T18:28:41.387Z,5.37
2019-04-10T18:31:13.078Z,6.03
2019-04-10T18:33:45.282Z,5.95
2019-04-10T18:36:17.528Z,5.67
2019-04-10T18:38:48.631Z,5.53
2019-04-10T18:41:19.996Z,5.53
2019-04-10T18:43:50.995Z,5.78
2019-04-10T18:46:22.517Z,5.75
2019-04-10T18:48:56.841Z,5.78
2019-04-10T18:51:28.280Z,6.75
2019-04-10T18:53:59.736Z,5.37
2019-04-10T18:56:31.402Z,6.25
2019-04-10T18:59:12.392Z,5.90
2019-04-10T19:01:51.736Z,5.97
2019-04-10T19:04:39.158Z,7.15
2019-04-10T19:07:11.223Z,6.15
2019-04-10T19:09:43.244Z,6.17
2019-04-10T19:12:14.709Z,6.62
2019-04-10T19:14:46.705Z,7.10
2019-04-10T19:17:19.000Z,7.10
2019-04-10T19:19:50.840Z,6.58
2019-04-10T19:22:22.240Z,8.48
2019-04-10T19:24:54.877Z,6.30
2019-04-10T19:27:26.724Z,9.08
2019-04-10T19:29:59.084Z,7.35
2019-04-10T19:32:35.291Z,16.82
2019-04-10T19:35:07.677Z,7.35
2019-04-10T19:37:39.257Z,6.30
2019-04-10T19:40:11.319Z,5.53
2019-04-10T19:42:43.758Z,5.53
2019-04-10T19:45:15.355Z,5.75
2019-04-10T19:47:46.593Z,5.87
2019-04-10T19:50:19.328Z,6.60
2019-04-10T19:52:51.121Z,6.45
2019-04-10T19:55:23.970Z,9.73
2019-04-10T19:57:55.455Z,7.42
2019-04-10T20:00:31.069Z,7.80
2019-04-10T20:03:02.196Z,6.72
2019-04-10T20:05:33.695Z,5.78
2019-04-10T20:08:05.722Z,5.47
2019-04-10T20:10:37.435Z,5.90
2019-04-10T20:13:08.948Z,5.87
2019-04-10T20:15:41.029Z,6.17
2019-04-10T20:18:12.693Z,5.85
2019-04-10T20:20:43.945Z,5.42
2019-04-10T20:23:15.981Z,5.70
2019-04-10T20:25:48.507Z,5.72
2019-04-10T20:28:20.608Z,5.97
2019-04-10T20:30:54.573Z,6.00
2019-04-10T20:33:25.068Z,5.87
2019-04-10T20:35:56.507Z,6.03
2019-04-10T20:38:27.997Z,6.42
2019-04-10T20:41:00.324Z,6.00
2019-04-10T20:43:33.688Z,6.08
2019-04-10T20:46:06.331Z,7.17
2019-04-10T20:48:40.369Z,6.60
2019-04-10T20:51:12.448Z,6.35
2019-04-10T20:53:44.339Z,6.40
2019-04-10T20:56:18.283Z,5.70
2019-04-10T20:58:50.533Z,5.50
2019-04-10T21:01:22.416Z,5.87
2019-04-10T21:03:55.261Z,5.35
2019-04-10T21:06:27.253Z,5.87
2019-04-10T21:08:58.940Z,5.67
2019-04-10T21:11:31.317Z,5.67
2019-04-10T21:14:03.069Z,5.75
2019-04-10T21:16:35.753Z,5.47
2019-04-10T21:19:06.969Z,6.08
2019-04-10T21:21:39.098Z,6.03
2019-04-10T21:24:11.373Z,6.00
2019-04-10T21:26:42.711Z,5.17
2019-04-10T21:29:21.046Z,5.45
2019-04-10T21:32:09.735Z,5.87
2019-04-10T21:34:43.242Z,5.20
2019-04-10T21:37:15.834Z,5.58
2019-04-10T21:39:48.138Z,5.53
2019-04-10T21:42:22.754Z,5.50
2019-04-10T21:44:53.379Z,5.15
2019-04-10T21:47:25.671Z,6.17
2019-04-10T21:49:57.308Z,5.78
2019-04-10T21:52:29.072Z,5.80
2019-04-10T21:55:00.729Z,5.67
2019-04-10T21:57:32.558Z,5.50
2019-04-10T22:00:03.882Z,4.70
2019-04-10T22:02:37.993Z,5.37
2019-04-10T22:05:10.212Z,5.60
2019-04-10T22:08:01.134Z,6.40
2019-04-10T22:10:37.444Z,5.45
2019-04-10T22:13:09.053Z,5.60
2019-04-10T22:15:42.041Z,5.30
2019-04-10T22:18:13.366Z,5.42
2019-04-10T22:20:44.680Z,5.70
2019-04-10T22:23:16.276Z,5.37
2019-04-10T22:25:47.968Z,6.12
2019-04-10T22:28:19.451Z,5.65
2019-04-10T22:30:50.720Z,5.42
2019-04-10T22:33:22.288Z,5.58
2019-04-10T22:35:53.447Z,5.35
2019-04-10T22:38:25.011Z,5.72
2019-04-10T22:40:58.084Z,5.35
2019-04-10T22:43:30.162Z,5.42
2019-04-10T22:46:02.589Z,5.42
2019-04-10T22:48:33.965Z,5.58
2019-04-10T22:51:07.955Z,5.50
2019-04-10T22:53:39.667Z,5.62
2019-04-10T22:56:10.958Z,5.47
2019-04-10T22:58:43.149Z,5.60
2019-04-10T23:01:15.853Z,5.75
2019-04-10T23:03:47.536Z,6.00
2019-04-10T23:06:18.781Z,5.95
2019-04-10T23:08:49.901Z,5.70
2019-04-10T23:11:30.442Z,6.30
2019-04-10T23:13:54.307Z,6.10
2019-04-10T23:16:26.168Z,6.17
2019-04-10T23:18:58.211Z,5.95
2019-04-10T23:21:30.397Z,5.30
2019-04-10T23:24:01.674Z,6.12
2019-04-10T23:26:33.326Z,6.12
2019-04-10T23:29:06.182Z,5.60
2019-04-10T23:31:37.459Z,6.05
2019-04-10T23:34:08.743Z,5.70
2019-04-10T23:36:40.389Z,5.80
2019-04-10T23:39:12.259Z,5.15
2019-04-10T23:41:43.483Z,5.20
2019-04-10T23:44:14.794Z,5.72
2019-04-10T23:46:45.944Z,5.67
2019-04-10T23:49:17.375Z,6.05
2019-04-10T23:51:49.561Z,6.00
2019-04-10T23:54:21.561Z,5.45
2019-04-10T23:56:54.678Z,5.50
2019-04-10T23:59:26.677Z,5.83
